createdAt,value
2019-04-29T00:02:34.433Z,4.80
2019-04-29T00:05:05.733Z,5.67
2019-04-29T00:07:35.952Z,5.97
2019-04-29T00:10:11.184Z,6.03
2019-04-29T00:12:41.149Z,4.92
2019-04-29T00:15:35.132Z,5.50
2019-04-29T00:18:10.446Z,7.72
2019-04-29T00:20:44.929Z,6.58
2019-04-29T00:23:14.946Z,9.88
2019-04-29T00:25:44.966Z,6.97
2019-04-29T00:28:15.424Z,7.33
2019-04-29T00:30:45.851Z,7.58
2019-04-29T00:33:16.400Z,6.83
2019-04-29T00:35:46.453Z,8.60
2019-04-29T00:38:40.781Z,8.13
2019-04-29T00:41:32.588Z,7.25
2019-04-29T00:44:07.826Z,4.85
2019-04-29T00:46:37.921Z,7.20
2019-04-29T00:49:07.881Z,6.70
2019-04-29T00:51:37.893Z,5.83
2019-04-29T00:54:24.229Z,6.42
2019-04-29T00:56:54.217Z,6.33
2019-04-29T00:59:24.192Z,6.05
2019-04-29T01:01:54.284Z,6.28
2019-04-29T01:04:24.639Z,5.85
2019-04-29T01:06:54.717Z,7.08
2019-04-29T01:09:25.257Z,7.75
2019-04-29T01:11:55.223Z,8.83
2019-04-29T01:14:25.182Z,7.40
2019-04-29T01:16:55.192Z,8.55
2019-04-29T01:19:25.177Z,8.43
2019-04-29T01:21:55.155Z,8.58
2019-04-29T01:24:25.169Z,7.12
2019-04-29T01:27:03.647Z,7.70
2019-04-29T01:29:34.645Z,6.87
2019-04-29T01:32:06.696Z,10.35
2019-04-29T01:34:46.089Z,8.38
2019-04-29T01:37:16.614Z,7.30
2019-04-29T01:39:52.337Z,8.43
2019-04-29T01:42:25.917Z,8.35
2019-04-29T01:44:55.893Z,8.70
2019-04-29T01:47:25.915Z,9.15
2019-04-29T01:49:55.888Z,8.38
2019-04-29T01:52:26.267Z,7.95
2019-04-29T01:54:56.580Z,7.83
2019-04-29T01:57:26.654Z,11.85
2019-04-29T01:59:56.627Z,9.53
2019-04-29T02:02:26.721Z,10.25
2019-04-29T02:04:56.771Z,9.35
2019-04-29T02:07:26.759Z,11.18
2019-04-29T02:10:02.691Z,9.48
2019-04-29T02:12:32.691Z,8.05
2019-04-29T02:15:02.740Z,8.65
2019-04-29T02:17:33.936Z,9.35
2019-04-29T02:20:04.604Z,8.90
2019-04-29T02:22:43.321Z,8.43
2019-04-29T02:25:17.968Z,9.18
2019-04-29T02:27:48.007Z,9.20
2019-04-29T02:30:44.377Z,8.43
2019-04-29T02:33:14.443Z,10.32
2019-04-29T02:35:44.505Z,8.38
2019-04-29T02:38:42.828Z,10.60
2019-04-29T02:41:20.102Z,10.35
2019-04-29T02:43:51.629Z,9.08
2019-04-29T02:46:21.587Z,8.30
2019-04-29T02:48:52.001Z,9.60
2019-04-29T02:51:40.023Z,9.33
2019-04-29T02:54:10.034Z,8.25
2019-04-29T02:56:41.747Z,8.48
2019-04-29T02:59:12.802Z,9.43
2019-04-29T03:01:56.393Z,10.03
2019-04-29T03:04:28.707Z,8.73
2019-04-29T03:06:58.694Z,10.05
2019-04-29T03:09:30.354Z,10.38
2019-04-29T03:12:01.870Z,8.85
2019-04-29T03:14:32.113Z,11.12
2019-04-29T03:17:02.094Z,58.68
2019-04-29T03:19:35.303Z,78.90
2019-04-29T03:22:07.162Z,83.33
2019-04-29T03:24:37.211Z,53.48
2019-04-29T03:27:07.210Z,42.00
2019-04-29T03:29:37.365Z,22.30
2019-04-29T03:32:07.390Z,18.23
2019-04-29T03:34:37.470Z,11.10
2019-04-29T03:37:07.463Z,39.85
2019-04-29T03:39:37.460Z,70.17
2019-04-29T03:42:07.653Z,92.60
2019-04-29T03:44:37.966Z,49.05
2019-04-29T03:47:07.964Z,28.35
2019-04-29T03:49:38.046Z,40.95
2019-04-29T03:52:08.094Z,22.10
2019-04-29T03:54:38.186Z,16.70
2019-04-29T03:57:09.627Z,13.28
2019-04-29T03:59:40.964Z,12.73
2019-04-29T04:02:19.378Z,13.13
2019-04-29T04:04:57.705Z,15.80
2019-04-29T04:07:46.713Z,16.50
2019-04-29T04:10:16.895Z,14.78
2019-04-29T04:12:46.864Z,12.55
2019-04-29T04:15:16.970Z,13.08
2019-04-29T04:17:56.863Z,11.73
2019-04-29T04:20:27.282Z,11.38
2019-04-29T04:22:57.307Z,11.33
2019-04-29T04:25:27.514Z,12.15
2019-04-29T04:27:57.526Z,13.80
2019-04-29T04:30:27.513Z,11.08
2019-04-29T04:32:57.485Z,12.03
2019-04-29T04:35:28.250Z,11.35
2019-04-29T04:37:58.254Z,10.95
2019-04-29T04:40:35.325Z,12.43
2019-04-29T04:43:05.380Z,14.15
2019-04-29T04:45:35.491Z,11.25
2019-04-29T04:48:06.454Z,11.15
2019-04-29T04:50:36.465Z,14.60
2019-04-29T04:53:06.576Z,12.45
2019-04-29T04:55:38.353Z,14.85
2019-04-29T04:58:08.356Z,12.50
2019-04-29T05:00:38.710Z,10.80
2019-04-29T05:03:09.080Z,14.25
2019-04-29T05:05:39.070Z,11.57
2019-04-29T05:08:10.149Z,13.78
2019-04-29T05:10:40.202Z,13.13
2019-04-29T05:13:10.215Z,14.13
2019-04-29T05:15:40.189Z,10.03
2019-04-29T05:18:10.261Z,12.58
2019-04-29T05:20:40.342Z,18.60
2019-04-29T05:23:10.352Z,15.88
2019-04-29T05:25:40.318Z,15.10
2019-04-29T05:28:10.374Z,14.85
2019-04-29T05:30:40.734Z,11.43
2019-04-29T05:33:10.732Z,12.63
2019-04-29T05:36:02.073Z,12.00
2019-04-29T05:38:37.502Z,14.10
2019-04-29T05:41:12.094Z,13.30
2019-04-29T05:44:04.424Z,11.63
2019-04-29T05:46:41.954Z,12.07
2019-04-29T05:49:15.400Z,13.88
2019-04-29T05:52:04.483Z,11.90
2019-04-29T05:54:34.819Z,13.68
2019-04-29T05:57:04.841Z,13.30
2019-04-29T05:59:35.052Z,11.22
2019-04-29T06:02:05.105Z,11.48
2019-04-29T06:04:35.106Z,12.40
2019-04-29T06:07:05.158Z,14.60
2019-04-29T06:09:35.177Z,10.13
2019-04-29T06:12:05.193Z,12.98
2019-04-29T06:14:35.184Z,13.78
2019-04-29T06:17:07.726Z,12.23
2019-04-29T06:19:39.362Z,13.83
2019-04-29T06:22:08.623Z,14.03
2019-04-29T06:24:41.035Z,9.55
2019-04-29T06:27:10.621Z,10.38
2019-04-29T06:29:40.879Z,10.90
2019-04-29T06:32:10.845Z,16.05
2019-04-29T06:34:41.767Z,18.35
2019-04-29T06:37:12.002Z,18.02
2019-04-29T06:39:41.988Z,15.50
2019-04-29T06:42:15.433Z,16.85
2019-04-29T06:44:44.321Z,16.62
2019-04-29T06:47:17.002Z,18.48
2019-04-29T06:49:48.194Z,18.70
2019-04-29T06:52:18.175Z,18.23
2019-04-29T06:54:48.233Z,23.27
2019-04-29T06:57:18.213Z,15.50
2019-04-29T06:59:48.725Z,17.62
2019-04-29T07:02:18.866Z,16.05
2019-04-29T07:04:48.861Z,22.52
2019-04-29T07:07:19.110Z,19.57
2019-04-29T07:09:49.137Z,11.70
2019-04-29T07:12:19.126Z,16.75
2019-04-29T07:15:01.229Z,11.97
2019-04-29T07:17:31.370Z,14.28
2019-04-29T07:20:03.332Z,12.68
2019-04-29T07:22:34.574Z,16.82
2019-04-29T07:25:04.752Z,17.17
2019-04-29T07:27:42.837Z,18.30
2019-04-29T07:30:08.396Z,16.75
2019-04-29T07:32:41.992Z,15.83
2019-04-29T07:35:11.524Z,19.48
2019-04-29T07:37:41.815Z,12.58
2019-04-29T07:40:12.335Z,16.65
2019-04-29T07:42:42.339Z,14.58
2019-04-29T07:45:44.455Z,13.20
2019-04-29T07:48:12.579Z,18.90
2019-04-29T07:50:42.803Z,11.75
2019-04-29T07:53:12.895Z,13.35
2019-04-29T07:55:43.006Z,16.27
2019-04-29T07:58:13.008Z,14.40
2019-04-29T08:00:44.524Z,14.93
2019-04-29T08:03:14.830Z,15.50
2019-04-29T08:05:44.947Z,16.30
2019-04-29T08:08:16.620Z,19.60
2019-04-29T08:10:56.184Z,15.83
2019-04-29T08:13:21.015Z,15.65
2019-04-29T08:15:51.075Z,14.10
2019-04-29T08:18:21.075Z,12.30
2019-04-29T08:20:51.143Z,20.32
2019-04-29T08:23:21.159Z,18.23
2019-04-29T08:25:51.234Z,14.15
2019-04-29T08:28:21.311Z,16.02
2019-04-29T08:30:51.414Z,10.80
2019-04-29T08:33:21.401Z,10.20
2019-04-29T08:35:51.443Z,12.30
2019-04-29T08:38:21.455Z,18.55
2019-04-29T08:40:51.735Z,16.07
2019-04-29T08:43:34.586Z,12.85
2019-04-29T08:46:10.618Z,10.15
2019-04-29T08:48:40.639Z,12.35
2019-04-29T08:51:10.659Z,12.78
2019-04-29T08:53:40.767Z,11.70
2019-04-29T08:56:12.146Z,11.65
2019-04-29T08:58:44.413Z,11.75
2019-04-29T09:01:14.078Z,10.55
2019-04-29T09:03:44.095Z,12.55
2019-04-29T09:06:14.110Z,11.43
2019-04-29T09:08:54.467Z,9.98
2019-04-29T09:11:15.862Z,12.05
2019-04-29T09:13:45.972Z,9.43
2019-04-29T09:16:16.011Z,10.78
2019-04-29T09:18:46.000Z,8.48
2019-04-29T09:21:16.160Z,9.60
2019-04-29T09:23:46.142Z,10.20
2019-04-29T09:26:31.504Z,9.48
2019-04-29T09:29:20.603Z,8.80
2019-04-29T09:31:50.741Z,10.15
2019-04-29T09:34:24.838Z,8.35
2019-04-29T09:36:53.695Z,8.18
2019-04-29T09:39:23.716Z,6.40
2019-04-29T09:42:03.394Z,7.58
2019-04-29T09:44:57.864Z,14.65
2019-04-29T09:47:28.360Z,9.53
2019-04-29T09:49:58.564Z,9.80
2019-04-29T09:52:28.708Z,9.45
2019-04-29T09:54:59.611Z,10.45
2019-04-29T09:57:30.873Z,7.37
2019-04-29T10:00:07.105Z,9.63
2019-04-29T10:02:59.074Z,11.08
2019-04-29T10:05:38.917Z,11.00
2019-04-29T10:08:08.913Z,9.40
2019-04-29T10:10:38.953Z,7.85
2019-04-29T10:13:09.036Z,9.60
2019-04-29T10:15:49.164Z,8.00
2019-04-29T10:18:37.328Z,11.95
2019-04-29T10:21:09.743Z,7.45
2019-04-29T10:23:40.134Z,11.30
2019-04-29T10:26:10.159Z,11.10
2019-04-29T10:28:51.483Z,10.78
2019-04-29T10:31:21.938Z,10.50
2019-04-29T10:33:54.889Z,11.48
2019-04-29T10:36:26.204Z,11.03
2019-04-29T10:38:57.611Z,9.83
2019-04-29T10:41:41.726Z,10.00
2019-04-29T10:44:30.932Z,7.10
2019-04-29T10:47:19.108Z,9.68
2019-04-29T10:49:54.264Z,8.80
2019-04-29T10:52:24.567Z,10.05
2019-04-29T10:54:56.512Z,10.95
2019-04-29T10:57:29.254Z,7.53
2019-04-29T11:00:10.071Z,11.18
2019-04-29T11:02:44.734Z,9.15
2019-04-29T11:05:44.668Z,10.93
2019-04-29T11:08:38.237Z,7.58
2019-04-29T11:11:22.176Z,9.85
2019-04-29T11:13:47.024Z,8.45
2019-04-29T11:16:14.283Z,8.20
2019-04-29T11:18:44.324Z,8.75
2019-04-29T11:21:14.603Z,11.15
2019-04-29T11:23:54.832Z,9.25
2019-04-29T11:26:36.402Z,9.60
2019-04-29T11:29:09.368Z,10.72
2019-04-29T11:31:39.321Z,8.78
2019-04-29T11:34:34.240Z,9.25
2019-04-29T11:37:06.451Z,9.85
2019-04-29T11:39:36.562Z,7.92
2019-04-29T11:42:09.840Z,9.00
2019-04-29T11:44:39.884Z,8.53
2019-04-29T11:47:10.000Z,7.45
2019-04-29T11:49:47.994Z,8.78
2019-04-29T11:52:18.450Z,10.50
2019-04-29T11:54:48.523Z,9.13
2019-04-29T11:57:40.427Z,9.60
2019-04-29T12:00:15.796Z,8.40
2019-04-29T12:02:50.636Z,9.48
2019-04-29T12:05:33.101Z,6.95
2019-04-29T12:08:11.150Z,6.95
2019-04-29T12:10:38.296Z,7.95
2019-04-29T12:13:10.429Z,10.53
2019-04-29T12:15:56.917Z,7.62
2019-04-29T12:18:34.011Z,7.08
2019-04-29T12:21:17.602Z,7.30
2019-04-29T12:23:47.885Z,5.17
2019-04-29T12:26:19.356Z,6.40
2019-04-29T12:28:49.397Z,4.47
2019-04-29T12:31:36.048Z,8.18
2019-04-29T12:34:17.295Z,6.45
2019-04-29T12:36:56.175Z,7.83
2019-04-29T12:39:43.433Z,7.30
2019-04-29T12:42:17.282Z,4.47
2019-04-29T12:44:53.725Z,5.92
2019-04-29T12:47:27.692Z,6.87
2019-04-29T12:49:57.732Z,5.97
2019-04-29T12:52:27.840Z,5.80
2019-04-29T12:55:00.944Z,7.92
2019-04-29T12:57:29.926Z,6.20
2019-04-29T13:00:01.663Z,4.85
2019-04-29T13:02:51.007Z,8.63
2019-04-29T13:05:27.137Z,6.25
2019-04-29T13:08:03.258Z,6.97
2019-04-29T13:10:50.561Z,8.60
2019-04-29T13:13:22.024Z,5.47
2019-04-29T13:16:03.946Z,5.47
2019-04-29T13:18:48.831Z,5.90
2019-04-29T13:21:17.221Z,5.40
2019-04-29T13:24:04.956Z,6.15
2019-04-29T13:26:27.966Z,6.50
2019-04-29T13:29:00.387Z,6.05
2019-04-29T13:31:37.527Z,5.62
2019-04-29T13:33:55.918Z,7.75
2019-04-29T13:36:27.385Z,7.17
2019-04-29T13:38:57.548Z,8.58
2019-04-29T13:41:27.874Z,6.17
2019-04-29T13:44:05.686Z,8.40
2019-04-29T13:46:51.175Z,7.58
2019-04-29T13:49:40.810Z,5.83
2019-04-29T13:52:11.265Z,5.47
2019-04-29T13:54:42.367Z,5.03
2019-04-29T13:57:15.889Z,5.90
2019-04-29T13:59:53.345Z,7.80
2019-04-29T14:02:36.698Z,6.80
2019-04-29T14:05:06.761Z,5.53
2019-04-29T14:07:39.452Z,6.87
2019-04-29T14:10:10.304Z,8.10
2019-04-29T14:12:51.121Z,7.62
2019-04-29T14:15:13.064Z,17.80
2019-04-29T14:17:43.084Z,8.35
2019-04-29T14:20:15.955Z,10.08
2019-04-29T14:22:45.023Z,6.22
2019-04-29T14:25:15.232Z,6.92
2019-04-29T14:27:45.251Z,8.23
2019-04-29T14:30:20.643Z,7.65
2019-04-29T14:32:52.204Z,8.18
2019-04-29T14:35:30.289Z,13.10
2019-04-29T14:38:05.142Z,9.28
2019-04-29T14:40:32.166Z,8.35
2019-04-29T14:43:31.354Z,14.63
2019-04-29T14:46:16.533Z,7.40
2019-04-29T14:49:04.530Z,7.55
2019-04-29T14:51:36.639Z,8.83
2019-04-29T14:54:06.036Z,7.45
2019-04-29T14:56:36.396Z,7.80
2019-04-29T14:59:07.548Z,10.08
2019-04-29T15:01:52.620Z,10.00
2019-04-29T15:04:25.160Z,10.93
2019-04-29T15:06:55.466Z,11.08
2019-04-29T15:09:25.534Z,10.28
2019-04-29T15:12:21.878Z,9.13
2019-04-29T15:14:59.186Z,7.05
2019-04-29T15:17:40.328Z,7.87
2019-04-29T15:20:31.963Z,7.58
2019-04-29T15:23:02.588Z,7.67
2019-04-29T15:25:32.963Z,6.85
2019-04-29T15:28:03.121Z,8.40
2019-04-29T15:30:36.767Z,7.28
2019-04-29T15:33:05.089Z,7.42
2019-04-29T15:35:35.143Z,8.93
2019-04-29T15:38:05.222Z,9.73
2019-04-29T15:40:42.828Z,7.55
2019-04-29T15:43:07.318Z,8.48
2019-04-29T15:45:40.705Z,8.65
2019-04-29T15:48:10.924Z,9.43
2019-04-29T15:50:40.934Z,9.15
2019-04-29T15:53:11.580Z,9.30
2019-04-29T15:55:41.781Z,10.32
2019-04-29T15:58:11.872Z,10.18
2019-04-29T16:00:42.079Z,11.22
2019-04-29T16:03:12.717Z,8.73
2019-04-29T16:06:19.827Z,9.33
2019-04-29T16:08:47.331Z,8.63
2019-04-29T16:11:35.571Z,9.30
2019-04-29T16:14:10.020Z,10.28
2019-04-29T16:16:39.718Z,7.92
2019-04-29T16:19:10.546Z,10.58
2019-04-29T16:21:41.780Z,10.25
2019-04-29T16:24:25.982Z,11.20
2019-04-29T16:26:44.948Z,8.90
2019-04-29T16:29:15.524Z,11.30
2019-04-29T16:31:45.706Z,11.73
2019-04-29T16:34:15.959Z,10.70
2019-04-29T16:36:50.030Z,11.15
2019-04-29T16:39:17.808Z,9.93
2019-04-29T16:42:05.760Z,10.53
2019-04-29T16:44:36.557Z,11.43
2019-04-29T16:47:13.446Z,10.78
2019-04-29T16:49:40.315Z,9.70
2019-04-29T16:52:10.350Z,9.58
2019-04-29T16:54:40.500Z,9.90
2019-04-29T16:57:11.728Z,10.50
2019-04-29T16:59:41.907Z,11.18
2019-04-29T17:02:18.998Z,7.85
2019-04-29T17:04:43.776Z,8.45
2019-04-29T17:07:15.362Z,9.35
2019-04-29T17:10:01.376Z,9.58
2019-04-29T17:12:38.027Z,8.58
2019-04-29T17:15:23.832Z,10.90
2019-04-29T17:17:41.361Z,12.28
2019-04-29T17:20:11.764Z,10.50
2019-04-29T17:22:43.107Z,10.53
2019-04-29T17:25:14.427Z,8.45
2019-04-29T17:28:11.883Z,9.70
2019-04-29T17:31:12.067Z,8.80
2019-04-29T17:33:49.937Z,9.35
2019-04-29T17:36:23.598Z,10.45
2019-04-29T17:38:50.447Z,10.98
2019-04-29T17:41:20.557Z,8.05
2019-04-29T17:44:18.695Z,8.53
2019-04-29T17:47:07.108Z,8.55
2019-04-29T17:49:54.723Z,12.15
2019-04-29T17:52:29.834Z,13.85
2019-04-29T17:55:15.261Z,13.45
2019-04-29T17:57:59.872Z,13.05
2019-04-29T18:00:43.762Z,16.07
2019-04-29T18:03:34.747Z,12.37
2019-04-29T18:06:17.226Z,12.98
2019-04-29T18:08:55.042Z,13.45
2019-04-29T18:11:25.226Z,11.00
2019-04-29T18:13:56.936Z,9.75
2019-04-29T18:16:35.265Z,17.20
2019-04-29T18:19:15.721Z,12.40
2019-04-29T18:22:03.752Z,18.02
2019-04-29T18:24:45.327Z,14.03
2019-04-29T18:27:18.427Z,11.93
2019-04-29T18:29:48.550Z,14.43
2019-04-29T18:32:18.670Z,12.53
2019-04-29T18:34:48.789Z,12.50
2019-04-29T18:37:19.403Z,15.13
2019-04-29T18:39:49.476Z,9.63
2019-04-29T18:42:19.575Z,11.73
2019-04-29T18:44:59.442Z,11.20
2019-04-29T18:47:23.076Z,12.68
2019-04-29T18:49:53.091Z,20.88
2019-04-29T18:52:26.555Z,12.70
2019-04-29T18:54:55.979Z,13.55
2019-04-29T18:57:30.515Z,12.88
2019-04-29T18:59:57.814Z,12.10
2019-04-29T19:02:27.863Z,15.00
2019-04-29T19:05:17.240Z,15.43
2019-04-29T19:07:55.352Z,13.08
2019-04-29T19:10:19.916Z,13.55
2019-04-29T19:12:58.220Z,14.55
2019-04-29T19:15:21.735Z,12.03
2019-04-29T19:17:59.064Z,13.68
2019-04-29T19:20:25.081Z,12.50
2019-04-29T19:23:05.470Z,12.40
2019-04-29T19:25:27.073Z,12.78
2019-04-29T19:27:57.136Z,16.80
2019-04-29T19:30:29.261Z,13.15
2019-04-29T19:33:00.283Z,15.18
2019-04-29T19:35:37.015Z,13.72
2019-04-29T19:38:02.818Z,13.83
2019-04-29T19:40:38.885Z,15.50
2019-04-29T19:43:10.320Z,13.78
2019-04-29T19:45:44.790Z,13.65
2019-04-29T19:48:16.093Z,14.45
2019-04-29T19:50:49.612Z,15.25
2019-04-29T19:53:19.844Z,17.62
2019-04-29T19:56:01.473Z,15.08
2019-04-29T19:58:27.922Z,15.13
2019-04-29T20:00:57.301Z,16.48
2019-04-29T20:03:35.761Z,17.57
2019-04-29T20:06:08.755Z,15.90
2019-04-29T20:08:52.552Z,17.65
2019-04-29T20:11:14.317Z,17.82
2019-04-29T20:13:40.828Z,70.80
2019-04-29T20:16:43.063Z,25.97
2019-04-29T20:19:16.559Z,19.07
2019-04-29T20:21:42.484Z,24.32
2019-04-29T20:24:15.442Z,16.55
2019-04-29T20:26:46.775Z,19.73
2019-04-29T20:29:16.284Z,18.67
2019-04-29T20:31:51.478Z,17.65
2019-04-29T20:34:23.567Z,18.85
2019-04-29T20:36:50.552Z,18.32
2019-04-29T20:39:23.538Z,19.20
2019-04-29T20:41:52.608Z,20.15
2019-04-29T20:44:23.155Z,19.15
2019-04-29T20:47:14.205Z,19.92
2019-04-29T20:49:30.956Z,20.68
2019-04-29T20:52:21.686Z,18.98
2019-04-29T20:55:18.854Z,21.52
2019-04-29T20:57:52.390Z,22.27
2019-04-29T21:00:24.904Z,22.37
2019-04-29T21:02:53.918Z,22.65
2019-04-29T21:05:25.442Z,28.85
2019-04-29T21:08:02.949Z,27.60
2019-04-29T21:10:28.909Z,26.40
2019-04-29T21:13:33.545Z,25.45
2019-04-29T21:16:16.738Z,26.25
2019-04-29T21:18:52.797Z,29.77
2019-04-29T21:21:19.055Z,28.47
2019-04-29T21:23:49.119Z,30.27
2019-04-29T21:26:19.171Z,29.35
2019-04-29T21:28:49.202Z,34.40
2019-04-29T21:31:19.993Z,31.30
2019-04-29T21:33:55.386Z,34.63
2019-04-29T21:36:34.898Z,33.73
2019-04-29T21:39:25.132Z,34.48
2019-04-29T21:42:15.769Z,34.20
2019-04-29T21:44:46.023Z,35.85
2019-04-29T21:47:16.321Z,36.13
2019-04-29T21:49:49.824Z,35.73
2019-04-29T21:52:19.762Z,35.73
2019-04-29T21:54:50.730Z,35.78
2019-04-29T21:57:23.712Z,37.00
2019-04-29T21:59:52.694Z,32.93
2019-04-29T22:02:23.042Z,34.45
2019-04-29T22:04:55.067Z,32.93
2019-04-29T22:07:25.862Z,35.85
2019-04-29T22:09:56.069Z,33.55
2019-04-29T22:12:26.091Z,31.85
2019-04-29T22:14:59.447Z,32.60
2019-04-29T22:17:32.759Z,33.70
2019-04-29T22:20:04.202Z,33.13
2019-04-29T22:22:36.530Z,31.65
2019-04-29T22:25:09.938Z,31.82
2019-04-29T22:27:41.270Z,30.88
2019-04-29T22:30:15.260Z,31.05
2019-04-29T22:32:46.935Z,31.93
2019-04-29T22:35:16.916Z,29.50
2019-04-29T22:37:47.188Z,30.37
2019-04-29T22:40:17.494Z,32.93
2019-04-29T22:43:10.162Z,28.27
2019-04-29T22:45:40.593Z,31.52
2019-04-29T22:48:16.450Z,32.10
2019-04-29T22:50:43.156Z,31.25
2019-04-29T22:53:14.814Z,27.85
2019-04-29T22:55:45.269Z,30.12
2019-04-29T22:58:15.460Z,29.32
2019-04-29T23:00:45.612Z,29.32
2019-04-29T23:03:15.747Z,27.98
2019-04-29T23:05:46.147Z,29.02
2019-04-29T23:08:16.438Z,31.42
2019-04-29T23:10:47.008Z,27.62
2019-04-29T23:13:17.264Z,26.05
2019-04-29T23:15:47.614Z,30.62
2019-04-29T23:18:24.723Z,28.42
2019-04-29T23:21:22.083Z,32.17
2019-04-29T23:24:01.315Z,29.67
2019-04-29T23:26:34.819Z,30.45
2019-04-29T23:29:07.174Z,30.55
2019-04-29T23:31:37.035Z,31.05
2019-04-29T23:34:07.827Z,28.10
2019-04-29T23:36:38.255Z,30.65
2019-04-29T23:39:08.969Z,28.85
2019-04-29T23:41:40.787Z,27.82
2019-04-29T23:44:10.928Z,31.70
2019-04-29T23:46:41.240Z,29.42
2019-04-29T23:49:11.355Z,32.80
2019-04-29T23:51:41.540Z,31.62
2019-04-29T23:54:11.876Z,30.70
2019-04-29T23:57:01.148Z,31.23
2019-04-29T23:59:35.080Z,30.35
